• Join FlightAware (Why Join?)
  • Login
  • US Flag 
05:44PM EDT


 

Airport Tracker/Info


-or-


 

Live Flight TrackerFlight Track Log ✈ SWA127 ✈ 05-Jul-2013 ✈ KMSY - KBWI

Flight Track Log - Related Links

Times and Time Zones

All times are in EDT time to prevent confusion due to time zone crossing. See the SWA127 flight status page for this flight to view local times or setup timezone preferences in your user account.

Time Position Orientation Groundspeed Altitude Reporting Facility
EDT Latitude Longitude Course Direction KTS MPH feet Rate Location/Type
07:28PM 29.9761 -90.2539 204° Southwest 152 175 1,000  Level Houston Center
07:28PM 29.9592 -90.2625 204° Southwest 169 194 1,900 2,880 Climbing Houston Center
07:29PM 29.9253 -90.2344 144° Southeast 203 234 4,800 3,180 Climbing Houston Center
07:30PM 29.9858 -90.1711 42° Northeast 235 270 8,400 3,000 Climbing Houston Center
07:31PM 30.0483 -90.1067 42° Northeast 288 331 11,800 3,360 Climbing Houston Center
07:32PM 30.1208 -90.0336 41° Northeast 339 390 15,300 3,240 Climbing Houston Center
07:33PM 30.1961 -89.9536 43° Northeast 364 419 18,400 2,640 Climbing Houston Center
07:34PM 30.2703 -89.8508 50° Northeast 422 486 20,800 2,580 Climbing Houston Center
07:35PM 30.3367 -89.7336 57° Northeast 426 490 23,700 2,160 Climbing Houston Center
07:36PM 30.4161 -89.5986 56° Northeast 467 537 25,200 1,680 Climbing Houston Center
07:37PM 30.4900 -89.4703 56° Northeast 479 551 27,200 1,800 Climbing Houston Center
07:38PM 30.5658 -89.3375 56° Northeast 491 565 28,900 1,800 Climbing Houston Center
07:39PM 30.6419 -89.2017 57° Northeast 502 578 31,000 2,040 Climbing Houston Center
07:40PM 30.7158 -89.0669 57° Northeast 495 570 33,100 1,980 Climbing Houston Center
07:42PM 30.8017 -88.9189 56° Northeast 496 571 35,100 1,920 Climbing Houston Center
07:43PM 30.8769 -88.7853 57° Northeast 494 568 37,100 1,800 Climbing Houston Center
07:44PM 30.9542 -88.6578 55° Northeast 482 555 38,800 1,560 Climbing Houston Center
07:45PM 31.0433 -88.5228 52° Northeast 487 560 40,300 1,020 Climbing Houston Center
07:46PM 31.1253 -88.3992 52° Northeast 488 562 41,000 300 Climbing Houston Center
07:47PM 31.2111 -88.2758 51° Northeast 494 568 41,000  Level Houston Center
07:48PM 31.2908 -88.1511 53° Northeast 487 560 41,000  Level Houston Center
07:49PM 31.3706 -88.0233 54° Northeast 487 560 41,000  Level Houston Center
07:50PM 31.4500 -87.8981 53° Northeast 481 554 41,000  Level Houston Center
07:51PM 31.5292 -87.7742 53° Northeast 475 547 41,000  Level Houston Center
07:52PM 31.6092 -87.6511 53° Northeast 475 547 41,000  Level Houston Center
07:53PM 31.7042 -87.5000 54° Northeast 478 550 41,000  Level Houston Center
07:54PM 31.7839 -87.3750 53° Northeast 478 550 41,000  Level Houston Center
07:55PM 31.8631 -87.2492 53° Northeast 478 550 41,000  Level Houston Center
07:56PM 31.9419 -87.1239 53° Northeast 478 550 41,000  Level Houston Center
07:57PM 32.0228 -86.9983 53° Northeast 480 552 41,000  Level Houston Center
07:58PM 32.1031 -86.8736 53° Northeast 480 552 41,000  Level Houston Center
07:59PM 32.1858 -86.7503 52° Northeast 479 551 41,000  Level Houston Center
08:00PM 32.2658 -86.6250 53° Northeast 479 551 41,000  Level Houston Center
08:01PM 32.3764 -86.4467 54° Northeast 474 545 41,000  Level Atlanta Center
08:02PM 32.4392 -86.3303 57° Northeast 464 534 41,000  Level Atlanta Center
08:03PM 32.5336 -86.1897 51° Northeast 481 554 41,000  Level Atlanta Center
08:04PM 32.6067 -86.0633 56° Northeast 481 554 41,000  Level Atlanta Center
08:05PM 32.6839 -85.9367 54° Northeast 476 548 41,000  Level Atlanta Center
08:06PM 32.7608 -85.8125 54° Northeast 470 541 41,000  Level Atlanta Center
08:07PM 32.8356 -85.6853 55° Northeast 470 541 41,000  Level Atlanta Center
08:08PM 32.9081 -85.5631 55° Northeast 470 541 41,000  Level Atlanta Center
08:09PM 32.9847 -85.4356 54° Northeast 470 541 41,000  Level Atlanta Center
08:10PM 33.0464 -85.3375 53° Northeast 470 541 41,000  Level Atlanta Center
08:11PM 33.1272 -85.2022 54° Northeast 460 529 41,000  Level Atlanta Center
08:12PM 33.2119 -85.0617 54° Northeast 466 536 41,000  Level Atlanta Center
08:13PM 33.2881 -84.9383 54° Northeast 472 543 41,000  Level Atlanta Center
08:14PM 33.3619 -84.8072 56° Northeast 472 543 41,000  Level Atlanta Center
08:15PM 33.4397 -84.6786 54° Northeast 472 543 41,000  Level Atlanta Center
08:16PM 33.5136 -84.5497 55° Northeast 472 543 41,000  Level Atlanta Center
08:17PM 33.5892 -84.4178 55° Northeast 472 543 41,000  Level Atlanta Center
08:18PM 33.6583 -84.3008 55° Northeast 472 543 41,000  Level Atlanta Center
08:19PM 33.7442 -84.1561 54° Northeast 483 556 41,000  Level Atlanta Center
08:20PM 33.8214 -84.0239 55° Northeast 483 556 41,000  Level Atlanta Center
08:21PM 33.8986 -83.8936 54° Northeast 483 556 41,000  Level Atlanta Center
08:22PM 33.9733 -83.7633 55° Northeast 483 556 41,000  Level Atlanta Center
08:23PM 34.0483 -83.6328 55° Northeast 478 550 41,000  Level Atlanta Center
08:24PM 34.1250 -83.4992 55° Northeast 473 544 41,000  Level Atlanta Center
08:25PM 34.2014 -83.3683 55° Northeast 473 544 41,000  Level Atlanta Center
08:26PM 34.2758 -83.2394 55° Northeast 473 544 41,000  Level Atlanta Center
08:27PM 34.3522 -83.1028 56° Northeast 473 544 41,000  Level Atlanta Center
08:28PM 34.4181 -82.9864 56° Northeast 473 544 41,000  Level Atlanta Center
08:29PM 34.4939 -82.8517 56° Northeast 479 551 41,000  Level Atlanta Center
08:30PM 34.5656 -82.7169 57° Northeast 474 545 41,000  Level Atlanta Center
08:31PM 34.6433 -82.5869 54° Northeast 474 545 41,000  Level Atlanta Center
08:32PM 34.7169 -82.4519 56° Northeast 474 545 41,000  Level Atlanta Center
08:33PM 34.7944 -82.3189 55° Northeast 474 545 41,000  Level Atlanta Center
08:34PM 34.8675 -82.1781 58° Northeast 474 545 41,000  Level Atlanta Center
08:35PM 34.9467 -82.0369 56° Northeast 469 540 41,000  Level Atlanta Center
08:36PM 35.0194 -81.9033 56° Northeast 474 545 41,000  Level Atlanta Center
08:37PM 35.0944 -81.7694 56° Northeast 474 545 41,000  Level Atlanta Center
08:38PM 35.1669 -81.6353 57° Northeast 474 545 41,000  Level Atlanta Center
08:39PM 35.2350 -81.5011 58° Northeast 468 539 41,000  Level Atlanta Center
08:40PM 35.3075 -81.3692 56° Northeast 468 539 41,000  Level Atlanta Center
08:41PM 35.3753 -81.2369 58° Northeast 468 539 41,000  Level Atlanta Center
08:42PM 35.4453 -81.1019 57° Northeast 463 533 41,000  Level Atlanta Center
08:43PM 35.5192 -80.9667 56° Northeast 469 540 41,000  Level Atlanta Center
08:44PM 35.5889 -80.8414 56° Northeast 463 533 41,000  Level Atlanta Center
08:45PM 35.6586 -80.7111 57° Northeast 457 526 41,000  Level Atlanta Center
08:46PM 35.7300 -80.5775 57° Northeast 457 526 41,000  Level Atlanta Center
08:48PM 35.8600 -80.3283 57° Northeast 463 533 41,000  Level Washington Center
08:49PM 35.9297 -80.1992 56° Northeast 453 521 41,000  Level Washington Center
08:50PM 35.9950 -80.0744 57° Northeast 443 510 41,000  Level Washington Center
08:51PM 36.0664 -79.9450 56° Northeast 437 503 41,000  Level Washington Center
08:52PM 36.1400 -79.8178 54° Northeast 449 517 41,000 -300 Level Washington Center
08:53PM 36.2178 -79.6753 56° Northeast 456 525 40,500 -720 Descending Washington Center
08:54PM 36.2869 -79.5475 56° Northeast 444 511 39,600 -840 Descending Washington Center
08:55PM 36.3619 -79.4172 54° Northeast 451 519 38,900 -900 Descending Washington Center
08:56PM 36.4283 -79.2964 56° Northeast 457 526 37,800 -1,020 Descending Washington Center
08:57PM 36.5014 -79.1656 55° Northeast 457 526 36,900 -1,140 Descending Washington Center
08:58PM 36.5825 -79.0297 53° Northeast 452 520 35,600 -2,580 Descending Washington Center
08:59PM 36.6550 -78.8956 56° Northeast 452 520 31,800 -3,360 Descending Washington Center
09:00PM 36.7297 -78.7561 56° Northeast 467 537 29,000 -1,440 Descending Washington Center
09:01PM 36.8064 -78.6192 55° Northeast 475 547 29,000 -120 Level Washington Center
09:02PM 36.8719 -78.4947 57° Northeast 475 547 28,800 -600 Descending Washington Center
09:03PM 36.9483 -78.3544 56° Northeast 475 547 27,800 -960 Descending Washington Center
09:04PM 37.0267 -78.2142 55° Northeast 480 552 27,000 -540 Descending Washington Center
09:05PM 37.1167 -78.1000 45° Northeast 475 547 26,800 -600 Descending Washington Center
09:06PM 37.2331 -78.0153 30° Northeast 468 539 25,800 -1,020 Descending Washington Center
09:07PM 37.3475 -77.9300 31° Northeast 468 539 24,800 -1,020 Descending Washington Center
09:08PM 37.4597 -77.8444 31° Northeast 468 539 23,800 -1,020 Descending Washington Center
09:09PM 37.5717 -77.7614 30° Northeast 468 539 22,800 -1,020 Descending Washington Center
09:10PM 37.6797 -77.6778 31° Northeast 463 533 21,800 -1,020 Descending Washington Center
09:11PM 37.7875 -77.5942 32° Northeast 456 525 20,800 -1,020 Descending Washington Center
09:12PM 37.8931 -77.5128 31° Northeast 456 525 19,800 -1,020 Descending Washington Center
09:13PM 37.9986 -77.4336 31° Northeast 451 519 18,800 -1,020 Descending Washington Center
09:14PM 38.0978 -77.3597 30° Northeast 434 499 17,800 -960 Descending Washington Center
09:15PM 38.1947 -77.2719 35° Northeast 423 487 17,000 -900 Descending Washington Center
09:16PM 38.2797 -77.1628 45° Northeast 423 487 16,000 -1,020 Descending Washington Center
09:17PM 38.3603 -77.0692 42° Northeast 408 470 15,000 -1,020 Descending Washington Center
09:18PM 38.4406 -76.9700 44° Northeast 397 457 14,000 -1,620 Descending Washington Center
09:19PM 38.5250 -76.8628 45° Northeast 392 451 11,800 -1,800 Descending Washington Center
09:20PM 38.5989 -76.7739 43° Northeast 380 437 10,500 -1,140 Descending Washington Center
09:21PM 38.6644 -76.6950 43° Northeast 345 397 9,600 -1,260 Descending Washington Center
09:22PM 38.7233 -76.6189 45° Northeast 314 361 8,000 -1,560 Descending Washington Center
09:23PM 38.7667 -76.5667 43° Northeast 303 349 6,900 -1,560 Descending Potomac TRACON
09:24PM 38.8500 -76.5333 17° North 289 333 5,400 -1,320 Descending Potomac TRACON
09:25PM 38.9167 -76.5167 11° North 271 312 4,300 -720 Descending Potomac TRACON
09:26PM 38.9833 -76.5000 11° North 230 265 4,000 -420 Descending Potomac TRACON
09:27PM 39.0167 -76.5333 322° Northwest 183 211 3,600 -840 Descending Potomac TRACON
09:28PM 39.0667 -76.5667 333° Northwest 192 221 2,400 -1,020 Descending Potomac TRACON
09:29PM 39.1167 -76.6167 322° Northwest 174 200 1,400 -900 Descending Potomac TRACON
09:30PM 39.1500 -76.6500 322° Northwest 145 167 700 -780 Descending Potomac TRACON
09:32PM 39.1667 -76.6667 339° North  Level FlightAware Approximate
09:39PM 39.1754 -76.6683 339° North  Level Estimated
09:40PM 39.1754 -76.6683 339° North  Level Estimated
09:41PM 39.1754 -76.6683 339° North  Level Estimated
09:42PM 39.1754 -76.6683 339° North  Level Estimated